Time;durP1;ratioP1;P1;durP2;ratioP2;P2;SDS_P1;SDS_P2;PMS_P1;PMS_P2;Temp;Humidity;BMP_temperature;BMP_pressure;BME280_temperature;BME280_humidity;BME280_pressure;Samples;Min_cycle;Max_cycle;Signal;HPM_P1;HPM_P2
2022/08/29 00:00:08;;;;;;;6.80;3.08;;;17.60;86.40;;;;;;4974381;28;20054;-62
2022/08/29 00:02:34;;;;;;;7.80;2.67;;;17.60;99.90;;;;;;4990052;28;20088;-62
2022/08/29 00:04:59;;;;;;;8.02;2.63;;;17.60;99.90;;;;;;4990109;28;20475;-62
2022/08/29 00:07:25;;;;;;;7.30;2.72;;;17.60;99.90;;;;;;4990445;28;20038;-62
2022/08/29 00:09:51;;;;;;;7.40;2.70;;;17.90;99.90;;;;;;4992052;28;20140;-62
2022/08/29 00:12:16;;;;;;;4.38;2.75;;;17.60;99.90;;;;;;4991207;28;20113;-62
2022/08/29 00:14:42;;;;;;;6.18;2.72;;;17.60;99.90;;;;;;4990885;28;20042;-62
2022/08/29 00:17:08;;;;;;;6.28;2.72;;;17.60;99.90;;;;;;4991610;28;20035;-62
2022/08/29 00:19:33;;;;;;;5.88;2.83;;;17.60;99.90;;;;;;4991308;28;20309;-62
2022/08/29 00:21:59;;;;;;;7.85;3.10;;;17.70;99.90;;;;;;4990828;28;20073;-62
2022/08/29 00:24:24;;;;;;;10.10;2.97;;;17.70;99.90;;;;;;4987210;28;20035;-62
2022/08/29 00:26:50;;;;;;;7.60;3.40;;;17.60;99.90;;;;;;4984995;28;20477;-62
2022/08/29 00:29:16;;;;;;;7.70;3.20;;;17.60;99.90;;;;;;4991276;28;20125;-62
2022/08/29 00:31:41;;;;;;;10.80;3.45;;;17.60;99.90;;;;;;4991895;28;20052;-62
2022/08/29 00:34:07;;;;;;;9.00;3.28;;;17.70;99.90;;;;;;4991255;28;20125;-62
2022/08/29 00:36:32;;;;;;;8.38;3.53;;;17.70;99.90;;;;;;4988456;28;20057;-62
2022/08/29 00:38:58;;;;;;;7.75;3.40;;;17.70;99.90;;;;;;4995423;28;20054;-62
2022/08/29 00:41:23;;;;;;;10.75;3.72;;;17.70;99.90;;;;;;4995065;28;20093;-62
2022/08/29 00:43:49;;;;;;;12.18;3.47;;;17.70;99.90;;;;;;4994644;28;20097;-62
2022/08/29 00:46:14;;;;;;;11.45;3.70;;;17.70;99.90;;;;;;4993999;28;20064;-62
2022/08/29 00:48:41;;;;;;;9.07;3.60;;;17.70;99.90;;;;;;4995367;28;20438;-62
2022/08/29 00:51:14;;;;;;;9.52;3.70;;;17.60;99.90;;;;;;4994498;28;20039;-62
2022/08/29 00:53:43;;;;;;;11.02;3.60;;;17.70;99.90;;;;;;4993689;28;20046;-62
2022/08/29 00:56:11;;;;;;;11.20;4.07;;;17.70;99.90;;;;;;4994095;28;20027;-62
2022/08/29 00:58:57;;;;;;;9.95;3.38;;;17.70;99.90;;;;;;4995148;28;20070;-62
2022/08/29 01:01:22;;;;;;;;;;;17.60;99.90;;;;;;4989406;28;20411;-62
2022/08/29 01:03:49;;;;;;;8.63;3.23;;;17.60;99.90;;;;;;4994319;28;19922;-62
2022/08/29 01:06:14;;;;;;;8.38;3.13;;;17.60;99.90;;;;;;4993909;28;20053;-62
2022/08/29 01:08:41;;;;;;;6.72;2.95;;;17.60;99.90;;;;;;4993853;28;20407;-62
2022/08/29 01:13:53;;;;;;;7.38;3.17;;;17.60;99.90;;;;;;4993994;28;20104;-62
2022/08/29 01:16:20;;;;;;;7.85;3.22;;;17.70;99.90;;;;;;4993145;28;20046;-62
2022/08/29 01:18:49;;;;;;;7.78;3.00;;;17.70;99.90;;;;;;4994346;28;20132;-62
2022/08/29 01:21:35;;;;;;;6.97;2.95;;;17.70;99.90;;;;;;4994296;28;20030;-62
2022/08/29 01:24:25;;;;;;;7.10;3.13;;;17.70;99.90;;;;;;4994096;28;20046;-62
2022/08/29 01:26:51;;;;;;;10.98;3.30;;;17.70;1.00;;;;;;4993502;28;20050;-62
2022/08/29 01:29:17;;;;;;;7.50;3.15;;;17.70;1.00;;;;;;4994126;28;20125;-62
2022/08/29 01:31:48;;;;;;;6.75;3.00;;;17.60;1.00;;;;;;4994042;28;20109;-62
2022/08/29 01:34:17;;;;;;;6.95;3.20;;;17.70;1.00;;;;;;4992222;28;20134;-62
2022/08/29 01:36:49;;;;;;;11.88;3.15;;;17.70;1.00;;;;;;4993243;28;20038;-62
2022/08/29 01:39:16;;;;;;;5.95;2.80;;;17.70;1.00;;;;;;4993486;28;20034;-62
2022/08/29 01:41:42;;;;;;;6.70;3.05;;;17.70;1.00;;;;;;4993356;28;20031;-62
2022/08/29 01:44:12;;;;;;;9.13;3.88;;;17.70;1.00;;;;;;4993785;28;20487;-62
2022/08/29 01:46:38;;;;;;;8.50;2.90;;;17.70;22.40;;;;;;4986155;28;20393;-62
2022/08/29 01:49:06;;;;;;;7.75;2.90;;;17.70;76.70;;;;;;4974892;28;20066;-62
2022/08/29 01:51:33;;;;;;;7.78;2.85;;;17.70;99.90;;;;;;4988852;28;20046;-62
2022/08/29 01:53:58;;;;;;;6.82;3.10;;;17.70;99.90;;;;;;4992320;28;20046;-62
2022/08/29 01:56:30;;;;;;;10.70;3.53;;;17.60;99.90;;;;;;4992619;28;20398;-62
2022/08/29 01:58:59;;;;;;;10.98;3.40;;;17.60;99.90;;;;;;4993802;28;20101;-62
2022/08/29 02:01:28;;;;;;;12.75;3.10;;;17.60;99.90;;;;;;4993755;28;20034;-62
2022/08/29 02:03:54;;;;;;;10.02;3.83;;;17.70;1.00;;;;;;4992651;28;20128;-62
2022/08/29 02:06:20;;;;;;;6.93;3.10;;;17.70;1.00;;;;;;4992909;28;20043;-62
2022/08/29 02:08:46;;;;;;;7.18;2.88;;;17.70;55.00;;;;;;4992911;28;20073;-62
2022/08/29 02:11:12;;;;;;;12.90;3.40;;;17.70;99.90;;;;;;4993448;28;20054;-62
2022/08/29 02:13:44;;;;;;;7.93;3.17;;;17.70;99.90;;;;;;4981332;28;20065;-62
2022/08/29 02:16:09;;;;;;;10.02;3.00;;;17.70;99.90;;;;;;4986742;28;20042;-62
2022/08/29 02:18:35;;;;;;;13.23;3.53;;;17.70;99.90;;;;;;4992765;28;20041;-62
2022/08/29 02:21:01;;;;;;;8.50;3.38;;;17.70;99.90;;;;;;4993412;28;20034;-62
2022/08/29 02:23:27;;;;;;;9.00;2.88;;;17.70;99.90;;;;;;4992771;28;20042;-62
2022/08/29 02:25:52;;;;;;;8.73;3.28;;;17.70;99.90;;;;;;4992719;28;20050;-62
2022/08/29 02:28:18;;;;;;;10.02;3.13;;;17.70;99.90;;;;;;4992821;28;20046;-62
2022/08/29 02:30:51;;;;;;;10.25;3.00;;;17.70;99.90;;;;;;4993257;28;20125;-62
2022/08/29 02:33:18;;;;;;;10.55;3.30;;;17.70;99.90;;;;;;4991159;28;20046;-62
2022/08/29 02:35:44;;;;;;;13.65;2.90;;;17.70;50.80;;;;;;4992710;28;20056;-62
2022/08/29 02:38:11;;;;;;;10.02;3.22;;;17.70;1.00;;;;;;4992337;28;20048;-62
2022/08/29 02:40:38;;;;;;;11.93;3.30;;;17.70;1.00;;;;;;4993449;28;20034;-62
2022/08/29 02:43:05;;;;;;;13.90;4.10;;;17.70;1.00;;;;;;4992569;28;20660;-62
2022/08/29 02:45:31;;;;;;;11.80;3.53;;;17.70;1.00;;;;;;4991271;28;20089;-62
2022/08/29 02:47:58;;;;;;;10.07;3.20;;;17.70;99.90;;;;;;4991836;28;20127;-62
2022/08/29 02:50:24;;;;;;;10.43;3.15;;;17.60;99.90;;;;;;4991587;28;20125;-62
2022/08/29 02:52:51;;;;;;;7.35;3.25;;;17.70;99.90;;;;;;4988073;28;20057;-62
2022/08/29 02:55:18;;;;;;;6.65;3.28;;;17.70;99.90;;;;;;4973777;28;20109;-62
2022/08/29 02:57:45;;;;;;;6.38;3.13;;;17.60;99.90;;;;;;4989801;28;20596;-62
2022/08/29 03:00:15;;;;;;;7.47;3.03;;;17.60;99.90;;;;;;4993014;28;20042;-62
2022/08/29 03:02:42;;;;;;;9.02;3.13;;;17.60;99.90;;;;;;4991308;28;20141;-62
2022/08/29 03:05:08;;;;;;;8.82;3.28;;;17.60;99.90;;;;;;4991999;28;20034;-62
2022/08/29 03:07:34;;;;;;;8.07;3.17;;;17.50;99.90;;;;;;4990641;28;20562;-62
2022/08/29 03:09:59;;;;;;;12.63;3.45;;;17.50;1.00;;;;;;4992507;28;20080;-62
2022/08/29 03:12:26;;;;;;;6.50;2.78;;;17.50;1.00;;;;;;4989747;28;20639;-62
2022/08/29 03:14:51;;;;;;;5.55;3.28;;;17.50;1.00;;;;;;4991962;28;20043;-62
2022/08/29 03:17:17;;;;;;;11.77;3.72;;;17.50;1.00;;;;;;4986862;28;20062;-62
2022/08/29 03:19:42;;;;;;;8.45;3.13;;;17.50;1.00;;;;;;4980735;28;20396;-62
2022/08/29 03:22:08;;;;;;;6.35;2.95;;;17.50;1.00;;;;;;4992420;28;20399;-62
2022/08/29 03:24:35;;;;;;;8.40;3.58;;;17.60;1.00;;;;;;4991646;28;20117;-62
2022/08/29 03:27:00;;;;;;;10.05;3.55;;;17.60;1.00;;;;;;4991461;28;20069;-62
2022/08/29 03:29:26;;;;;;;8.73;3.03;;;17.50;1.00;;;;;;4992157;28;20038;-62
2022/08/29 03:31:52;;;;;;;8.60;3.72;;;17.60;1.00;;;;;;4992151;28;20057;-62
2022/08/29 03:34:18;;;;;;;7.82;3.20;;;17.50;3.40;;;;;;4991225;28;20043;-62
2022/08/29 03:36:43;;;;;;;9.73;3.50;;;17.50;91.20;;;;;;4988608;28;20049;-62
2022/08/29 03:39:09;;;;;;;10.57;3.22;;;17.60;99.90;;;;;;4991787;28;20044;-62
2022/08/29 03:41:34;;;;;;;10.13;3.40;;;17.60;99.90;;;;;;4992108;28;20039;-62
2022/08/29 03:44:00;;;;;;;10.45;3.17;;;17.60;1.00;;;;;;4990729;28;20048;-62
2022/08/29 03:46:26;;;;;;;8.32;3.05;;;17.60;1.00;;;;;;4989163;28;20121;-62
2022/08/29 03:48:52;;;;;;;9.85;3.13;;;17.60;54.80;;;;;;4972836;28;20081;-62
2022/08/29 03:51:19;;;;;;;9.90;3.35;;;17.60;99.90;;;;;;4988984;28;20480;-62
2022/08/29 03:53:45;;;;;;;10.70;3.50;;;17.60;99.90;;;;;;4990482;28;20117;-62
2022/08/29 03:56:11;;;;;;;9.65;3.10;;;17.60;1.00;;;;;;4991364;28;20130;-62
2022/08/29 03:58:37;;;;;;;6.20;2.58;;;17.60;99.90;;;;;;4991934;28;20034;-62
2022/08/29 04:01:03;;;;;;;7.70;3.08;;;17.60;1.00;;;;;;4991652;28;20052;-62
2022/08/29 04:03:28;;;;;;;7.53;2.60;;;17.60;99.90;;;;;;4991448;28;20108;-62
2022/08/29 04:05:54;;;;;;;8.00;2.65;;;17.60;1.00;;;;;;4991657;28;20126;-62
2022/08/29 04:08:20;;;;;;;9.75;2.25;;;17.60;99.90;;;;;;4990174;28;20152;-62
2022/08/29 04:10:45;;;;;;;5.93;2.53;;;17.60;99.90;;;;;;4995796;28;20089;-62
2022/08/29 04:13:11;;;;;;;6.45;2.95;;;17.60;45.70;;;;;;4995273;28;20053;-62
2022/08/29 04:15:40;;;;;;;8.45;2.50;;;17.60;99.90;;;;;;4995414;28;20061;-62
2022/08/29 04:18:07;;;;;;;8.20;2.67;;;17.60;1.00;;;;;;4980780;28;20100;-62
2022/08/29 04:20:38;;;;;;;3.78;2.00;;;17.60;15.80;;;;;;4991134;28;20480;-62
2022/08/29 04:23:05;;;;;;;5.60;2.28;;;17.50;99.90;;;;;;4982354;28;20038;-62
2022/08/29 04:25:35;;;;;;;5.38;2.17;;;17.50;99.90;;;;;;4995572;28;20046;-62
2022/08/29 04:28:06;;;;;;;9.10;2.38;;;17.50;1.00;;;;;;4991096;28;20531;-62
2022/08/29 04:30:32;;;;;;;8.25;2.10;;;17.50;94.30;;;;;;4995077;28;20042;-62
2022/08/29 04:32:58;;;;;;;4.35;2.05;;;17.50;99.90;;;;;;4994250;28;20057;-62
2022/08/29 04:35:24;;;;;;;11.48;2.13;;;17.50;69.40;;;;;;4995165;28;20133;-62
2022/08/29 04:37:49;;;;;;;10.23;1.73;;;17.50;99.90;;;;;;4995166;28;20042;-62
2022/08/29 04:40:17;;;;;;;4.63;1.98;;;17.50;99.90;;;;;;4995554;28;20042;-62
2022/08/29 04:42:43;;;;;;;6.22;2.00;;;17.50;99.90;;;;;;4994298;28;20031;-62
2022/08/29 04:45:13;;;;;;;4.82;2.17;;;17.50;99.90;;;;;;4994881;28;20034;-62
2022/08/29 04:47:40;;;;;;;7.65;2.17;;;17.50;99.90;;;;;;4994770;28;20045;-62
2022/08/29 04:50:07;;;;;;;6.50;1.83;;;17.50;99.90;;;;;;4994658;28;20554;-62
2022/08/29 04:52:33;;;;;;;6.70;1.88;;;17.50;99.90;;;;;;4993968;28;20030;-62
2022/08/29 04:54:59;;;;;;;3.75;1.58;;;17.50;99.90;;;;;;4994983;28;20062;-62
2022/08/29 04:57:24;;;;;;;5.13;1.80;;;17.40;99.90;;;;;;4985389;28;20050;-62
2022/08/29 04:59:58;;;;;;;9.07;1.95;;;17.50;99.90;;;;;;4995493;28;20034;-62
2022/08/29 05:02:24;;;;;;;24.17;2.78;;;17.40;99.90;;;;;;4994482;28;20046;-62
2022/08/29 05:04:55;;;;;;;11.50;2.17;;;17.50;99.90;;;;;;4995115;28;20042;-62
2022/08/29 05:07:24;;;;;;;5.53;2.03;;;17.50;99.90;;;;;;4992452;28;20106;-62
2022/08/29 05:09:57;;;;;;;10.68;2.13;;;17.50;99.90;;;;;;4990330;28;20073;-62
2022/08/29 05:12:24;;;;;;;10.00;2.03;;;17.50;99.90;;;;;;4990189;28;20038;-62
2022/08/29 05:14:50;;;;;;;7.07;2.10;;;17.50;99.90;;;;;;4991852;28;20046;-62
2022/08/29 05:17:16;;;;;;;33.15;2.90;;;17.50;99.90;;;;;;4991875;28;20077;-62
2022/08/29 05:19:42;;;;;;;3.70;1.90;;;17.50;99.90;;;;;;4983537;28;20088;-62
2022/08/29 05:22:09;;;;;;;9.77;2.03;;;17.60;99.90;;;;;;4993883;28;20043;-62
2022/08/29 05:24:36;;;;;;;6.38;2.10;;;17.50;99.90;;;;;;4991957;28;20053;-62
2022/08/29 05:27:08;;;;;;;8.65;2.33;;;17.60;99.90;;;;;;4993597;28;20042;-62
2022/08/29 05:29:36;;;;;;;28.88;2.50;;;17.60;99.90;;;;;;4990375;28;20571;-62
2022/08/29 05:32:02;;;;;;;7.78;2.30;;;17.50;99.90;;;;;;4989817;28;20387;-62
2022/08/29 05:34:27;;;;;;;9.88;2.50;;;17.60;99.90;;;;;;4990847;28;20050;-62
2022/08/29 05:36:53;;;;;;;5.10;2.10;;;17.60;99.90;;;;;;4991196;28;20042;-62
2022/08/29 05:39:19;;;;;;;9.73;2.03;;;17.60;99.90;;;;;;4993504;28;20333;-62
2022/08/29 05:41:45;;;;;;;33.25;3.20;;;17.60;99.90;;;;;;4990529;28;20045;-62
2022/08/29 05:44:10;;;;;;;7.25;1.95;;;17.60;99.90;;;;;;4989406;28;20050;-62
2022/08/29 05:46:36;;;;;;;10.43;2.42;;;17.60;99.90;;;;;;4983897;28;20053;-62
2022/08/29 05:49:01;;;;;;;9.70;1.85;;;17.70;99.90;;;;;;4993180;28;20516;-62
2022/08/29 05:51:27;;;;;;;8.20;2.10;;;17.60;99.90;;;;;;4988709;28;20395;-62
2022/08/29 05:53:52;;;;;;;33.47;3.85;;;17.60;99.90;;;;;;4991966;28;20073;-62
2022/08/29 05:56:23;;;;;;;7.85;2.20;;;17.60;99.90;;;;;;4990724;28;20038;-62
2022/08/29 05:58:49;;;;;;;14.63;2.60;;;17.70;99.90;;;;;;4992442;28;20372;-62
2022/08/29 06:01:27;;;;;;;11.38;1.90;;;17.70;99.90;;;;;;4993938;28;20038;-62
2022/08/29 06:03:53;;;;;;;8.55;2.10;;;17.60;99.90;;;;;;4982600;28;20160;-62
2022/08/29 06:06:24;;;;;;;9.35;2.15;;;17.70;99.90;;;;;;4986820;28;20034;-65
2022/08/29 06:08:51;;;;;;;10.98;2.30;;;17.80;99.90;;;;;;4991636;28;20046;-68
2022/08/29 06:11:20;;;;;;;9.90;2.47;;;17.70;99.90;;;;;;4989917;28;20053;-62
2022/08/29 06:13:46;;;;;;;14.50;2.60;;;17.70;99.90;;;;;;4990333;28;20046;-61
2022/08/29 06:16:18;;;;;;;19.20;2.75;;;17.90;99.90;;;;;;4983904;28;20046;-62
2022/08/29 06:18:44;;;;;;;10.20;2.42;;;17.90;99.90;;;;;;4983331;28;20035;-62
2022/08/29 06:21:11;;;;;;;9.18;2.20;;;18.00;99.90;;;;;;4988689;28;20037;-62
2022/08/29 06:23:38;;;;;;;8.13;2.25;;;18.00;99.90;;;;;;4991424;28;20038;-62
2022/08/29 06:26:05;;;;;;;5.43;1.90;;;18.00;99.90;;;;;;4991936;28;20097;-62
2022/08/29 06:28:31;;;;;;;14.73;3.03;;;18.00;99.90;;;;;;4985789;28;20030;-62
2022/08/29 06:31:09;;;;;;;91.22;4.15;;;18.10;99.90;;;;;;4989284;28;20053;-63
2022/08/29 06:33:35;;;;;;;136.32;7.50;;;18.10;99.90;;;;;;4989664;28;20057;-62
2022/08/29 06:36:01;;;;;;;13.98;2.60;;;18.30;99.90;;;;;;4991810;28;20475;-63
2022/08/29 06:38:27;;;;;;;9.40;2.03;;;18.30;99.90;;;;;;4981480;28;20035;-63
2022/08/29 06:40:53;;;;;;;6.57;1.95;;;18.30;99.90;;;;;;4988027;28;20503;-63
2022/08/29 06:43:18;;;;;;;6.20;1.67;;;18.30;99.90;;;;;;4992914;28;20046;-63
2022/08/29 06:45:44;;;;;;;7.32;2.35;;;18.30;99.90;;;;;;4993024;28;20038;-64
2022/08/29 06:48:09;;;;;;;7.25;2.22;;;18.20;99.90;;;;;;4991458;28;20112;-63
2022/08/29 06:50:39;;;;;;;14.90;2.85;;;18.20;99.90;;;;;;4992961;28;20038;-63
2022/08/29 06:53:06;;;;;;;9.93;1.98;;;18.30;99.90;;;;;;4990685;28;20104;-62
2022/08/29 06:55:34;;;;;;;7.68;1.65;;;18.30;99.90;;;;;;4987613;28;20065;-63
2022/08/29 06:57:59;;;;;;;5.53;2.00;;;18.30;99.90;;;;;;4987060;28;20050;-63
2022/08/29 07:00:25;;;;;;;9.93;2.10;;;18.30;99.90;;;;;;4988676;28;20080;-62
2022/08/29 07:02:51;;;;;;;10.40;2.20;;;18.40;99.90;;;;;;4988793;28;20121;-62
2022/08/29 07:05:17;;;;;;;5.53;1.50;;;18.40;99.90;;;;;;4991929;28;20084;-63
2022/08/29 07:07:43;;;;;;;5.60;2.03;;;18.40;99.90;;;;;;4990012;28;20058;-63
2022/08/29 07:10:11;;;;;;;6.63;1.92;;;18.40;99.90;;;;;;4986846;28;20109;-63
2022/08/29 07:12:37;;;;;;;7.07;2.08;;;18.40;99.90;;;;;;4985077;28;20066;-63
2022/08/29 07:15:03;;;;;;;4.97;1.70;;;18.40;99.90;;;;;;4986945;28;20073;-63
2022/08/29 07:17:29;;;;;;;4.53;1.77;;;18.50;99.90;;;;;;4986742;28;20042;-63
2022/08/29 07:19:54;;;;;;;3.08;1.52;;;18.60;99.90;;;;;;4985863;28;20037;-62
2022/08/29 07:22:20;;;;;;;8.38;1.90;;;18.70;99.90;;;;;;4986301;28;20034;-63
2022/08/29 07:24:46;;;;;;;5.63;1.52;;;18.70;99.90;;;;;;4986297;28;20042;-62
2022/08/29 07:27:13;;;;;;;5.03;1.70;;;18.90;99.90;;;;;;4987995;28;20084;-63
2022/08/29 07:29:39;;;;;;;8.98;2.20;;;18.90;99.90;;;;;;4984894;28;20042;-63
2022/08/29 07:32:05;;;;;;;4.22;1.58;;;19.00;99.90;;;;;;4989057;28;20047;-63
2022/08/29 07:34:31;;;;;;;8.73;1.83;;;19.00;99.90;;;;;;4987656;28;20500;-62
2022/08/29 07:36:56;;;;;;;11.20;2.65;;;19.10;99.90;;;;;;4987621;28;20034;-61
2022/08/29 07:39:22;;;;;;;9.18;1.80;;;19.00;99.90;;;;;;4988377;28;20045;-62
2022/08/29 07:41:48;;;;;;;8.68;1.92;;;19.10;99.90;;;;;;4987077;28;20038;-62
2022/08/29 07:44:15;;;;;;;5.88;1.80;;;19.20;99.90;;;;;;4982388;28;20042;-63
2022/08/29 07:46:42;;;;;;;10.43;1.98;;;19.30;99.90;;;;;;4984998;28;20041;-63
2022/08/29 07:49:08;;;;;;;9.88;2.28;;;19.30;99.90;;;;;;4987507;28;20476;-63
2022/08/29 07:51:34;;;;;;;10.80;2.20;;;19.40;99.90;;;;;;4984864;28;20052;-63
2022/08/29 07:54:00;;;;;;;8.05;1.77;;;19.40;99.90;;;;;;4988125;28;20042;-63
2022/08/29 07:56:29;;;;;;;9.05;1.77;;;19.50;99.90;;;;;;4986457;28;20038;-63
2022/08/29 07:58:55;;;;;;;7.82;2.05;;;19.40;99.90;;;;;;4983882;28;20039;-62
2022/08/29 08:01:22;;;;;;;8.82;2.17;;;19.90;99.90;;;;;;4984839;28;20037;-63
2022/08/29 08:03:51;;;;;;;7.80;2.00;;;19.40;99.90;;;;;;4987901;28;20045;-63
2022/08/29 08:06:19;;;;;;;8.00;1.80;;;19.40;99.90;;;;;;4986544;28;20042;-63
2022/08/29 08:08:45;;;;;;;12.45;1.98;;;19.40;99.90;;;;;;4985221;28;20062;-63
2022/08/29 08:11:11;;;;;;;5.78;1.85;;;19.50;99.90;;;;;;4985902;28;20058;-63
2022/08/29 08:13:37;;;;;;;4.35;1.80;;;19.60;99.90;;;;;;4988272;28;20466;-63
2022/08/29 08:16:09;;;;;;;4.40;1.48;;;19.50;99.90;;;;;;4985807;28;20042;-63
2022/08/29 08:18:36;;;;;;;7.57;2.20;;;19.60;99.90;;;;;;4987523;28;20046;-62
2022/08/29 08:21:03;;;;;;;7.68;1.90;;;19.70;99.90;;;;;;4985346;28;20121;-63
2022/08/29 08:23:29;;;;;;;7.00;1.98;;;19.80;99.90;;;;;;4984886;28;20129;-62
2022/08/29 08:25:55;;;;;;;8.23;2.00;;;19.80;99.90;;;;;;4987682;28;20133;-63
2022/08/29 08:28:20;;;;;;;8.73;2.15;;;19.80;99.90;;;;;;4986794;28;20038;-63
2022/08/29 08:30:46;;;;;;;9.18;2.05;;;20.00;99.90;;;;;;4988403;28;20499;-63
2022/08/29 08:33:11;;;;;;;6.55;2.10;;;20.00;99.90;;;;;;4986952;28;20065;-63
2022/08/29 08:35:38;;;;;;;7.75;2.20;;;20.10;99.90;;;;;;4988034;28;20038;-63
2022/08/29 08:38:05;;;;;;;9.35;2.70;;;20.00;99.90;;;;;;4986845;28;20038;-63
2022/08/29 08:40:31;;;;;;;5.75;1.90;;;20.10;99.90;;;;;;4983227;28;20070;-62
2022/08/29 08:43:00;;;;;;;7.80;2.15;;;20.20;99.90;;;;;;4985144;28;20126;-63
2022/08/29 08:45:36;;;;;;;8.32;2.45;;;20.00;99.90;;;;;;4985570;28;20035;-63
2022/08/29 08:48:18;;;;;;;9.18;2.58;;;20.00;99.90;;;;;;4984496;28;20042;-63
2022/08/29 08:50:50;;;;;;;9.27;2.20;;;20.20;99.90;;;;;;5000527;28;20511;-63
2022/08/29 08:53:34;;;;;;;6.40;2.28;;;20.40;99.90;;;;;;4984327;28;20054;-63
2022/08/29 08:56:06;;;;;;;9.18;2.30;;;20.60;99.90;;;;;;4987794;28;20030;-63
2022/08/29 08:59:04;;;;;;;5.75;1.85;;;20.80;99.90;;;;;;4989608;28;20110;-63
2022/08/29 09:01:35;;;;;;;10.70;2.35;;;20.60;99.90;;;;;;4988231;28;20047;-62
2022/08/29 09:04:30;;;;;;;8.77;2.28;;;20.50;99.90;;;;;;4990126;28;20510;-63
2022/08/29 09:07:13;;;;;;;7.47;2.20;;;20.50;99.90;;;;;;4986960;28;20042;-63
2022/08/29 09:09:58;;;;;;;8.82;2.38;;;20.50;99.90;;;;;;4988189;28;20050;-63
2022/08/29 09:12:33;;;;;;;11.18;2.50;;;20.50;99.90;;;;;;4987988;28;20137;-63
2022/08/29 09:15:09;;;;;;;11.35;2.42;;;20.50;99.90;;;;;;4989437;28;20042;-63
2022/08/29 09:17:49;;;;;;;8.77;2.10;;;20.50;99.90;;;;;;4987044;28;20030;-63
2022/08/29 09:20:27;;;;;;;10.15;2.35;;;20.40;99.90;;;;;;4989492;28;20057;-63
2022/08/29 09:23:23;;;;;;;7.72;2.35;;;20.30;99.90;;;;;;4990818;28;20030;-63
2022/08/29 09:25:50;;;;;;;6.93;2.30;;;20.40;99.90;;;;;;4990256;28;20034;-63
2022/08/29 09:28:15;;;;;;;7.63;2.00;;;20.40;99.90;;;;;;4990009;28;20121;-63
2022/08/29 09:30:44;;;;;;;11.02;2.58;;;20.50;99.90;;;;;;4991047;28;20117;-63
2022/08/29 09:33:15;;;;;;;12.32;2.53;;;20.60;99.90;;;;;;4987924;28;20310;-63
2022/08/29 09:36:01;;;;;;;7.43;2.05;;;20.70;99.90;;;;;;4991026;28;20038;-63
2022/08/29 09:38:27;;;;;;;12.85;2.90;;;20.80;99.90;;;;;;4986562;28;20448;-63
2022/08/29 09:40:57;;;;;;;11.07;2.60;;;20.80;1.00;;;;;;4989695;28;20034;-63
2022/08/29 09:43:38;;;;;;;6.85;2.03;;;20.90;16.00;;;;;;4987460;28;20035;-63
2022/08/29 09:46:24;;;;;;;14.30;3.17;;;21.00;1.00;;;;;;4990171;28;20042;-63
2022/08/29 09:48:51;;;;;;;8.93;2.47;;;21.30;99.90;;;;;;4989094;28;20053;-63
2022/08/29 09:51:25;;;;;;;8.68;2.13;;;21.50;99.90;;;;;;4990836;28;20373;-63
2022/08/29 09:53:54;;;;;;;8.13;2.50;;;21.50;99.90;;;;;;4985130;28;20042;-63
2022/08/29 09:56:26;;;;;;;10.73;2.45;;;21.70;1.00;;;;;;4986892;28;20042;-63
2022/08/29 09:59:09;;;;;;;8.88;2.20;;;21.60;1.00;;;;;;4987737;28;20046;-63
2022/08/29 10:01:37;;;;;;;5.55;1.95;;;21.70;1.00;;;;;;4988257;28;20827;-63
2022/08/29 10:04:05;;;;;;;8.15;2.45;;;21.70;99.90;;;;;;4986709;28;20129;-63
2022/08/29 10:06:38;;;;;;;8.52;2.30;;;21.70;1.00;;;;;;4987261;28;20046;-63
2022/08/29 10:09:27;;;;;;;9.10;2.47;;;21.80;99.90;;;;;;4988646;28;20062;-63
2022/08/29 10:12:02;;;;;;;10.77;2.70;;;21.70;1.00;;;;;;4988044;28;20578;-63
2022/08/29 10:14:52;;;;;;;9.40;2.55;;;21.60;99.90;;;;;;4987758;28;20038;-63
2022/08/29 10:20:15;;;;;;;10.88;2.78;;;21.50;1.00;;;;;;4989469;28;20042;-63
2022/08/29 10:22:51;;;;;;;13.35;2.72;;;21.30;99.90;;;;;;4986548;28;20373;-62
2022/08/29 10:25:20;;;;;;;;;;;21.20;99.90;;;;;;4988384;28;20030;-63
2022/08/29 10:27:59;;;;;;;10.75;2.80;;;21.10;99.90;;;;;;4989450;28;19952;-63
2022/08/29 10:30:33;;;;;;;11.27;2.80;;;21.00;1.00;;;;;;4987400;28;20037;-63
2022/08/29 10:33:26;;;;;;;13.30;2.50;;;21.00;99.90;;;;;;4987690;28;20065;-63
2022/08/29 10:36:15;;;;;;;8.55;2.40;;;21.00;99.90;;;;;;4985964;28;20048;-63
2022/08/29 10:38:48;;;;;;;11.15;2.55;;;20.90;99.90;;;;;;4988646;28;20045;-63
2022/08/29 10:41:26;;;;;;;10.80;2.70;;;21.00;19.80;;;;;;4986698;28;20045;-63
2022/08/29 10:43:54;;;;;;;9.73;2.45;;;21.10;99.90;;;;;;4988624;28;20038;-63
2022/08/29 10:46:41;;;;;;;18.85;3.00;;;21.00;1.00;;;;;;4985372;28;20057;-63
2022/08/29 10:49:22;;;;;;;11.20;3.10;;;20.90;99.90;;;;;;4985809;28;20057;-63
2022/08/29 10:51:51;;;;;;;9.90;2.67;;;20.90;1.00;;;;;;4985691;28;20077;-63
2022/08/29 10:54:51;;;;;;;16.58;3.00;;;21.00;33.30;;;;;;4986282;28;20558;-63
2022/08/29 10:57:42;;;;;;;12.27;2.58;;;21.00;1.00;;;;;;4985965;28;20117;-64
2022/08/29 11:00:13;;;;;;;12.70;2.90;;;20.90;59.60;;;;;;4986542;28;20062;-64
2022/08/29 11:03:01;;;;;;;15.75;3.60;;;20.90;99.90;;;;;;4988036;28;20042;-63
2022/08/29 11:05:34;;;;;;;17.67;2.92;;;20.80;99.90;;;;;;4986169;28;20030;-63
2022/08/29 11:08:11;;;;;;;21.55;3.30;;;20.80;1.00;;;;;;4988491;28;20112;-62
2022/08/29 11:10:42;;;;;;;11.88;3.17;;;20.80;24.40;;;;;;4984293;28;21102;-63
2022/08/29 11:13:22;;;;;;;7.25;2.72;;;20.80;95.60;;;;;;4985964;28;20093;-63
2022/08/29 11:16:07;;;;;;;10.85;3.03;;;20.80;99.90;;;;;;4988013;28;20472;-63
2022/08/29 11:18:50;;;;;;;16.73;3.50;;;20.80;99.90;;;;;;4984085;28;20416;-62
2022/08/29 11:21:40;;;;;;;14.35;3.10;;;20.90;1.00;;;;;;4987953;28;20092;-63
2022/08/29 11:24:07;;;;;;;15.30;3.10;;;20.90;99.90;;;;;;4987442;28;20046;-63
2022/08/29 11:26:42;;;;;;;13.05;4.05;;;21.00;99.90;;;;;;4986116;28;20058;-63
2022/08/29 11:29:31;;;;;;;10.77;3.70;;;20.90;99.90;;;;;;4985376;28;20038;-63
2022/08/29 11:32:18;;;;;;;8.63;3.15;;;20.90;99.90;;;;;;4986612;28;20100;-63
2022/08/29 11:35:19;;;;;;;14.82;3.17;;;20.90;99.90;;;;;;4986286;28;20042;-63
2022/08/29 11:38:09;;;;;;;12.35;3.15;;;21.00;99.90;;;;;;4987166;28;20043;-64
2022/08/29 11:40:50;;;;;;;16.67;3.50;;;21.00;99.90;;;;;;4985786;28;20560;-63
2022/08/29 11:43:23;;;;;;;11.95;3.60;;;21.00;99.90;;;;;;4987650;28;20042;-63
2022/08/29 11:46:00;;;;;;;11.65;2.97;;;20.90;99.90;;;;;;4984656;28;20042;-63
2022/08/29 11:48:47;;;;;;;14.55;3.15;;;20.90;99.90;;;;;;5002741;28;20041;-63
2022/08/29 11:51:36;;;;;;;16.90;3.13;;;21.00;99.90;;;;;;4982424;28;20138;-63
2022/08/29 11:54:23;;;;;;;13.13;3.10;;;21.00;99.90;;;;;;4985046;28;20392;-63
2022/08/29 11:57:09;;;;;;;8.95;2.72;;;21.10;99.90;;;;;;4984096;28;20081;-63
2022/08/29 11:59:47;;;;;;;;;;;21.10;99.90;;;;;;4983892;28;20045;-63
2022/08/29 12:02:30;;;;;;;11.40;3.30;;;21.00;99.90;;;;;;4980236;28;19921;-63
2022/08/29 12:05:07;;;;;;;9.77;3.08;;;21.00;99.90;;;;;;4982695;28;20129;-63
2022/08/29 12:07:58;;;;;;;8.85;2.88;;;21.00;99.90;;;;;;4985651;28;20045;-63
2022/08/29 12:10:28;;;;;;;17.83;3.25;;;21.00;99.90;;;;;;4986266;28;20058;-63
2022/08/29 12:12:58;;;;;;;10.43;3.10;;;21.00;99.90;;;;;;4986989;28;20515;-63
2022/08/29 12:15:26;;;;;;;21.70;3.83;;;21.00;99.90;;;;;;4986427;28;20697;-64
2022/08/29 12:17:54;;;;;;;15.10;3.67;;;20.90;99.90;;;;;;4982744;28;20125;-63
2022/08/29 12:20:34;;;;;;;17.30;3.47;;;21.00;99.90;;;;;;4985507;28;20039;-63
2022/08/29 12:23:09;;;;;;;16.08;3.20;;;21.20;99.90;;;;;;4982783;28;20055;-63
2022/08/29 12:25:42;;;;;;;13.10;3.45;;;21.00;99.90;;;;;;4988071;28;20077;-63
2022/08/29 12:28:19;;;;;;;14.20;3.35;;;21.20;99.90;;;;;;4984076;28;20042;-64
2022/08/29 12:31:02;;;;;;;10.23;2.88;;;21.20;99.90;;;;;;4986628;28;20038;-63
2022/08/29 12:33:49;;;;;;;12.50;3.45;;;21.20;99.90;;;;;;4990246;28;20113;-63
2022/08/29 12:36:27;;;;;;;16.63;3.40;;;21.20;99.90;;;;;;4985226;28;20038;-63
2022/08/29 12:39:01;;;;;;;14.63;3.63;;;21.20;99.90;;;;;;4990035;28;20047;-63
2022/08/29 12:41:45;;;;;;;18.13;3.95;;;21.10;99.90;;;;;;4989313;28;20038;-63
2022/08/29 12:44:15;;;;;;;12.55;3.47;;;21.10;99.90;;;;;;4987555;28;20038;-64
2022/08/29 12:46:45;;;;;;;25.88;3.53;;;21.20;99.90;;;;;;4990327;28;20053;-63
2022/08/29 12:49:22;;;;;;;12.30;3.28;;;21.20;99.90;;;;;;4991395;28;20038;-63
2022/08/29 12:51:54;;;;;;;13.85;3.63;;;21.40;99.90;;;;;;4985960;28;20042;-63
2022/08/29 12:54:35;;;;;;;28.25;4.65;;;21.60;18.10;;;;;;4991457;28;20185;-63
2022/08/29 12:57:04;;;;;;;12.38;3.10;;;21.50;1.00;;;;;;4987821;28;20065;-63
2022/08/29 12:59:30;;;;;;;12.13;3.35;;;21.50;99.90;;;;;;4985138;28;20046;-63
2022/08/29 13:01:57;;;;;;;13.57;3.47;;;21.50;2.00;;;;;;4988660;28;20100;-63
2022/08/29 13:04:26;;;;;;;17.83;3.40;;;21.30;1.00;;;;;;4987017;28;20034;-63
2022/08/29 13:06:54;;;;;;;19.30;3.60;;;21.40;1.00;;;;;;4988451;28;20528;-61